createdAt,value
2022-09-20T00:02:08.141Z,11.25
2022-09-20T00:05:11.012Z,11.18
2022-09-20T00:08:16.034Z,11.08
2022-09-20T00:11:24.713Z,11.13
2022-09-20T00:14:27.256Z,11.04
2022-09-20T00:17:30.064Z,11.04
2022-09-20T00:20:32.474Z,11.17
2022-09-20T00:23:36.478Z,11.01
2022-09-20T00:26:39.688Z,11.12
2022-09-20T00:29:42.482Z,11.03
2022-09-20T00:32:44.931Z,11.04
2022-09-20T00:35:47.721Z,11.02
2022-09-20T00:38:50.236Z,11.02
2022-09-20T00:41:52.974Z,11.13
2022-09-20T00:45:07.021Z,11.09
2022-09-20T00:48:15.188Z,11.05
2022-09-20T00:51:23.655Z,11.01
2022-09-20T00:54:27.906Z,11.07
2022-09-20T00:57:35.274Z,11.02
2022-09-20T01:00:38.493Z,11.07
2022-09-20T01:03:42.348Z,11.04
2022-09-20T01:06:46.327Z,11.02
2022-09-20T01:09:49.239Z,10.90
2022-09-20T01:12:52.478Z,10.80
2022-09-20T01:15:55.680Z,10.67
2022-09-20T01:19:01.276Z,10.80
2022-09-20T01:22:12.466Z,10.84
2022-09-20T01:25:17.164Z,10.77
2022-09-20T01:28:19.647Z,10.66
2022-09-20T01:31:28.680Z,10.66
2022-09-20T01:34:36.453Z,10.74
2022-09-20T01:38:02.945Z,10.85
2022-09-20T01:41:29.283Z,10.61
2022-09-20T01:44:40.718Z,10.80
2022-09-20T01:47:55.293Z,10.70
2022-09-20T01:51:09.965Z,10.71
2022-09-20T01:54:26.266Z,10.75
2022-09-20T01:58:06.581Z,10.71
2022-09-20T02:01:33.789Z,10.73
2022-09-20T02:05:14.331Z,10.68
2022-09-20T02:08:25.718Z,10.81
2022-09-20T02:12:06.025Z,10.72
2022-09-20T02:15:36.590Z,10.62
2022-09-20T02:18:57.772Z,10.55
2022-09-20T02:22:21.462Z,10.57
2022-09-20T02:25:36.610Z,10.53
2022-09-20T02:29:11.905Z,10.60
2022-09-20T02:32:24.954Z,10.63
2022-09-20T02:36:08.320Z,10.71
2022-09-20T02:39:23.202Z,10.78
2022-09-20T02:42:41.195Z,10.80
2022-09-20T02:46:03.611Z,10.73
2022-09-20T02:49:19.108Z,10.63
2022-09-20T02:52:56.549Z,10.40
2022-09-20T02:56:19.660Z,10.51
2022-09-20T02:59:25.128Z,10.55
2022-09-20T03:02:40.918Z,10.50
2022-09-20T03:05:43.371Z,10.37
2022-09-20T03:09:07.226Z,10.36
2022-09-20T03:12:28.386Z,10.41
2022-09-20T03:15:50.273Z,10.30
2022-09-20T03:19:12.063Z,10.25
2022-09-20T03:22:34.548Z,10.35
2022-09-20T03:25:47.066Z,10.20
2022-09-20T03:28:54.552Z,10.10
2022-09-20T03:32:01.063Z,10.13
2022-09-20T03:35:34.961Z,10.18
2022-09-20T03:39:05.475Z,10.36
2022-09-20T03:42:23.051Z,10.25
2022-09-20T03:46:16.159Z,10.19
2022-09-20T03:49:37.519Z,10.02
2022-09-20T03:52:52.202Z,10.08
2022-09-20T03:56:13.512Z,10.16
2022-09-20T03:59:24.666Z,10.11
2022-09-20T04:02:45.378Z,9.96
2022-09-20T04:06:00.977Z,10.06
2022-09-20T04:09:16.110Z,10.08
2022-09-20T04:12:42.793Z,10.08
2022-09-20T04:16:32.342Z,10.05
2022-09-20T04:19:41.741Z,10.10
2022-09-20T04:22:45.245Z,9.90
2022-09-20T04:25:49.894Z,9.67
2022-09-20T04:28:57.071Z,9.64
2022-09-20T04:32:16.719Z,9.77
2022-09-20T04:35:58.962Z,9.85
2022-09-20T04:39:30.624Z,9.87
2022-09-20T04:42:47.866Z,9.92
2022-09-20T04:46:29.250Z,9.92
2022-09-20T04:50:02.451Z,9.90
2022-09-20T04:53:14.944Z,9.87
2022-09-20T04:56:22.273Z,9.96
2022-09-20T05:00:02.488Z,10.04
2022-09-20T05:03:31.138Z,9.92
2022-09-20T05:06:59.988Z,9.87
2022-09-20T05:10:41.125Z,9.98
2022-09-20T05:14:02.343Z,10.03
2022-09-20T05:17:31.570Z,10.00
2022-09-20T05:20:48.743Z,10.10
2022-09-20T05:24:18.474Z,10.16
2022-09-20T05:27:45.640Z,10.14
2022-09-20T05:30:49.351Z,10.14
2022-09-20T05:34:19.913Z,10.18
2022-09-20T05:37:44.261Z,10.36
2022-09-20T05:41:05.797Z,10.39
2022-09-20T05:44:40.597Z,10.39
2022-09-20T05:48:00.616Z,10.39
2022-09-20T05:51:21.973Z,10.49
2022-09-20T05:54:46.849Z,10.70
2022-09-20T05:58:04.583Z,10.71
2022-09-20T06:01:26.677Z,10.87
2022-09-20T06:05:03.616Z,10.88
2022-09-20T06:08:24.934Z,11.07
2022-09-20T06:11:49.453Z,11.18
2022-09-20T06:15:02.617Z,11.12
2022-09-20T06:18:11.559Z,11.09
2022-09-20T06:21:46.712Z,11.07
2022-09-20T06:24:56.580Z,11.19
2022-09-20T06:28:05.305Z,11.23
2022-09-20T06:31:11.469Z,11.35
2022-09-20T06:34:14.955Z,11.40
2022-09-20T06:37:45.697Z,11.33
2022-09-20T06:41:20.776Z,11.33
2022-09-20T06:44:23.787Z,11.62
2022-09-20T06:47:27.101Z,11.49
2022-09-20T06:50:30.353Z,11.65
2022-09-20T06:53:36.023Z,11.71
2022-09-20T06:56:38.911Z,11.74
2022-09-20T06:59:41.625Z,11.89
2022-09-20T07:02:44.504Z,12.09
2022-09-20T07:05:47.200Z,12.20
2022-09-20T07:08:49.980Z,12.25
2022-09-20T07:11:52.489Z,12.46
2022-09-20T07:14:55.265Z,12.45
2022-09-20T07:17:57.842Z,12.45
2022-09-20T07:21:01.783Z,12.60
2022-09-20T07:24:04.365Z,12.63
2022-09-20T07:27:07.237Z,12.65
2022-09-20T07:30:11.160Z,12.69
2022-09-20T07:33:19.557Z,12.85
2022-09-20T07:36:22.159Z,12.95
2022-09-20T07:39:25.956Z,13.10
2022-09-20T07:42:29.127Z,12.97
2022-09-20T07:45:32.262Z,13.09
2022-09-20T07:48:36.821Z,13.15
2022-09-20T07:51:39.658Z,13.21
2022-09-20T07:54:42.507Z,13.40
2022-09-20T07:57:45.662Z,13.38
2022-09-20T08:00:55.374Z,13.66
2022-09-20T08:03:58.153Z,13.59
2022-09-20T08:07:01.833Z,13.67
2022-09-20T08:10:05.424Z,13.77
2022-09-20T08:16:32.158Z,14.06
2022-09-20T08:19:36.475Z,14.14
2022-09-20T08:22:42.060Z,14.27
2022-09-20T08:25:44.519Z,14.49
2022-09-20T08:28:52.332Z,14.70
2022-09-20T08:31:58.212Z,14.80
2022-09-20T08:35:01.030Z,14.69
2022-09-20T08:41:30.940Z,14.77
2022-09-20T08:44:36.107Z,14.39
2022-09-20T08:47:46.564Z,14.70
2022-09-20T08:50:49.675Z,14.29
2022-09-20T08:53:53.558Z,14.40
2022-09-20T08:56:56.475Z,14.28
2022-09-20T09:00:03.943Z,14.55
2022-09-20T09:03:12.105Z,14.77
2022-09-20T09:06:18.569Z,14.88
2022-09-20T09:09:24.420Z,15.05
2022-09-20T09:12:31.120Z,15.37
2022-09-20T09:15:35.961Z,15.32
2022-09-20T09:18:44.268Z,15.15
2022-09-20T09:21:46.772Z,15.22
2022-09-20T09:25:07.020Z,15.06
2022-09-20T09:28:09.569Z,14.97
2022-09-20T09:31:14.019Z,14.87
2022-09-20T09:34:38.733Z,14.91
2022-09-20T09:37:53.891Z,15.15
2022-09-20T09:40:58.864Z,15.34
2022-09-20T09:44:20.667Z,15.18
2022-09-20T09:47:31.215Z,15.53
2022-09-20T09:50:34.836Z,15.86
2022-09-20T09:53:38.239Z,15.54
2022-09-20T09:56:40.987Z,15.65
2022-09-20T09:59:49.618Z,16.07
2022-09-20T10:03:14.110Z,16.29
2022-09-20T10:06:41.707Z,16.42
2022-09-20T10:09:50.362Z,16.15
2022-09-20T10:13:06.527Z,16.39
2022-09-20T10:16:29.153Z,16.60
2022-09-20T10:19:50.523Z,16.35
2022-09-20T10:26:55.245Z,16.19
2022-09-20T10:30:03.026Z,16.19
2022-09-20T10:33:21.682Z,16.36
2022-09-20T10:36:43.609Z,16.56
2022-09-20T10:39:52.176Z,16.64
2022-09-20T10:43:17.067Z,16.87
2022-09-20T10:46:33.004Z,16.85
2022-09-20T10:49:50.724Z,17.08
2022-09-20T10:52:59.945Z,16.92
2022-09-20T10:56:11.447Z,16.98
2022-09-20T10:59:35.917Z,17.02
2022-09-20T11:02:44.290Z,16.99
2022-09-20T11:06:08.215Z,16.75
2022-09-20T11:09:15.037Z,16.98
2022-09-20T11:12:42.553Z,16.92
2022-09-20T11:16:00.284Z,16.99
2022-09-20T11:19:47.703Z,17.12
2022-09-20T11:22:55.863Z,17.08
2022-09-20T11:26:10.609Z,17.33
2022-09-20T11:29:25.346Z,17.40
2022-09-20T11:32:44.963Z,17.04
2022-09-20T11:35:58.469Z,16.91
2022-09-20T11:39:06.304Z,16.90
2022-09-20T11:42:16.226Z,17.12
2022-09-20T11:45:21.610Z,16.91
2022-09-20T11:48:29.987Z,16.79
2022-09-20T11:51:49.542Z,17.05
2022-09-20T11:55:18.837Z,17.19
2022-09-20T11:58:22.464Z,17.32
2022-09-20T12:01:33.355Z,17.37
2022-09-20T12:04:36.902Z,17.51
2022-09-20T12:07:41.428Z,17.53
2022-09-20T12:10:58.915Z,17.56
2022-09-20T12:14:08.294Z,17.88
2022-09-20T12:17:48.449Z,17.84
2022-09-20T12:20:52.186Z,18.02
2022-09-20T12:23:57.697Z,18.16
2022-09-20T12:27:19.896Z,18.21
2022-09-20T12:30:22.724Z,17.93
2022-09-20T12:33:58.294Z,17.93
2022-09-20T12:37:01.016Z,17.91
2022-09-20T12:40:03.653Z,17.71
2022-09-20T12:43:17.524Z,17.80
2022-09-20T12:46:23.284Z,17.58
2022-09-20T12:49:47.569Z,17.79
2022-09-20T12:52:54.181Z,17.83
2022-09-20T12:56:03.062Z,17.72
2022-09-20T12:59:21.094Z,17.74
2022-09-20T13:02:52.903Z,18.02
2022-09-20T13:06:08.759Z,18.01
2022-09-20T13:09:13.847Z,18.05
2022-09-20T13:12:17.091Z,17.98
2022-09-20T13:15:21.822Z,18.13
2022-09-20T13:18:25.214Z,18.08
2022-09-20T13:21:28.405Z,18.04
2022-09-20T13:24:38.597Z,17.97
2022-09-20T13:27:49.736Z,17.55
2022-09-20T13:31:24.003Z,17.31
2022-09-20T13:34:27.113Z,17.04
2022-09-20T13:37:30.303Z,17.03
2022-09-20T13:40:36.083Z,17.03
2022-09-20T13:43:43.751Z,16.72
2022-09-20T13:46:46.503Z,16.77
2022-09-20T13:49:49.955Z,16.72
2022-09-20T13:52:58.752Z,16.50
2022-09-20T13:56:01.716Z,16.46
2022-09-20T13:59:08.041Z,16.59
2022-09-20T14:02:19.843Z,16.45
2022-09-20T14:05:26.465Z,16.50
2022-09-20T14:08:38.561Z,16.72
2022-09-20T14:11:41.492Z,16.64
2022-09-20T14:14:44.155Z,16.26
2022-09-20T14:17:47.435Z,16.42
2022-09-20T14:20:50.203Z,16.44
2022-09-20T14:23:59.758Z,16.56
2022-09-20T14:27:19.974Z,16.68
2022-09-20T14:30:36.219Z,16.75
2022-09-20T14:33:45.241Z,16.75
2022-09-20T14:36:49.312Z,16.90
2022-09-20T14:39:59.870Z,16.93
2022-09-20T14:43:05.041Z,17.17
2022-09-20T14:46:17.414Z,17.17
2022-09-20T14:49:29.453Z,16.69
2022-09-20T14:52:36.671Z,16.78
2022-09-20T14:55:42.335Z,16.87
2022-09-20T14:59:14.015Z,17.01
2022-09-20T15:02:17.181Z,16.79
2022-09-20T15:05:26.530Z,16.72
2022-09-20T15:08:29.621Z,16.63
2022-09-20T15:11:32.209Z,16.56
2022-09-20T15:14:37.891Z,16.51
2022-09-20T15:17:45.100Z,16.46
2022-09-20T15:20:50.021Z,16.32
2022-09-20T15:23:52.776Z,16.33
2022-09-20T15:26:55.499Z,15.97
2022-09-20T15:29:58.606Z,15.95
2022-09-20T15:33:03.204Z,15.79
2022-09-20T15:36:06.052Z,15.89
2022-09-20T15:39:09.297Z,15.66
2022-09-20T15:42:13.195Z,15.74
2022-09-20T15:45:16.026Z,15.55
2022-09-20T15:48:22.927Z,15.43
2022-09-20T15:51:25.927Z,15.18
2022-09-20T15:54:28.492Z,14.89
2022-09-20T15:57:32.017Z,14.89
2022-09-20T16:00:34.570Z,14.64
2022-09-20T16:03:37.384Z,14.74
2022-09-20T16:06:41.134Z,14.71
2022-09-20T16:09:44.056Z,14.52
2022-09-20T16:12:46.829Z,14.52
2022-09-20T16:15:57.012Z,14.50
2022-09-20T16:19:17.964Z,14.36
2022-09-20T16:22:20.832Z,14.14
2022-09-20T16:25:23.367Z,14.07
2022-09-20T16:28:29.026Z,14.23
2022-09-20T16:31:42.255Z,14.13
2022-09-20T16:34:45.603Z,14.19
2022-09-20T16:37:48.240Z,14.28
2022-09-20T16:40:55.724Z,14.03
2022-09-20T16:43:58.200Z,14.08
2022-09-20T16:47:01.505Z,14.02
2022-09-20T16:50:05.812Z,13.88
2022-09-20T16:53:08.891Z,13.78
2022-09-20T16:56:21.696Z,13.89
2022-09-20T16:59:24.591Z,13.56
2022-09-20T17:02:27.082Z,13.78
2022-09-20T17:05:29.914Z,13.81
2022-09-20T17:08:40.050Z,13.73
2022-09-20T17:11:45.937Z,13.62
2022-09-20T17:14:48.400Z,13.66
2022-09-20T17:17:51.369Z,13.66
2022-09-20T17:20:53.843Z,13.67
2022-09-20T17:23:58.777Z,13.54
2022-09-20T17:27:01.714Z,13.59
2022-09-20T17:30:05.524Z,13.61
2022-09-20T17:33:08.017Z,13.61
2022-09-20T17:36:16.722Z,13.55
2022-09-20T17:39:19.757Z,13.48
2022-09-20T17:42:22.539Z,13.43
2022-09-20T17:45:25.060Z,13.35
2022-09-20T17:48:28.002Z,13.29
2022-09-20T17:51:35.977Z,13.20
2022-09-20T17:54:39.580Z,13.12
2022-09-20T17:57:42.511Z,13.01
2022-09-20T18:00:45.506Z,12.98
2022-09-20T18:03:49.671Z,12.88
2022-09-20T18:06:53.672Z,12.88
2022-09-20T18:09:57.735Z,12.86
2022-09-20T18:13:01.110Z,12.82
2022-09-20T18:16:05.586Z,12.62
2022-09-20T18:19:08.702Z,12.67
2022-09-20T18:22:11.670Z,12.62
2022-09-20T18:25:14.210Z,12.47
2022-09-20T18:28:18.183Z,12.43
2022-09-20T18:31:33.379Z,12.42
2022-09-20T18:34:36.265Z,12.35
2022-09-20T18:37:38.775Z,12.36
2022-09-20T18:40:41.978Z,12.32
2022-09-20T18:43:46.553Z,12.18
2022-09-20T18:46:50.754Z,12.21
2022-09-20T18:49:53.394Z,12.04
2022-09-20T18:52:59.470Z,12.00
2022-09-20T18:56:20.449Z,11.95
2022-09-20T18:59:26.589Z,12.05
2022-09-20T19:02:50.099Z,11.80
2022-09-20T19:06:02.630Z,11.84
2022-09-20T19:10:06.187Z,11.84
2022-09-20T19:13:54.734Z,11.81
2022-09-20T19:17:01.546Z,11.88
2022-09-20T19:20:10.412Z,11.86
2022-09-20T19:23:25.330Z,11.87
2022-09-20T19:26:30.028Z,11.82
2022-09-20T19:29:34.456Z,11.81
2022-09-20T19:32:37.677Z,11.79
2022-09-20T19:35:44.189Z,11.70
2022-09-20T19:39:21.948Z,11.69
2022-09-20T19:42:28.697Z,11.63
2022-09-20T19:45:50.570Z,11.59
2022-09-20T19:49:15.637Z,11.55
2022-09-20T19:52:18.947Z,11.41
2022-09-20T19:55:22.191Z,11.33
2022-09-20T19:58:25.669Z,11.29
2022-09-20T20:01:28.458Z,11.16
2022-09-20T20:04:31.658Z,11.14
2022-09-20T20:08:19.776Z,11.10
2022-09-20T20:12:03.429Z,11.11
2022-09-20T20:15:10.875Z,10.94
2022-09-20T20:18:31.575Z,10.96
2022-09-20T20:21:51.662Z,10.93
2022-09-20T20:24:56.562Z,10.92
2022-09-20T20:27:59.073Z,10.87
2022-09-20T20:31:04.690Z,10.83
2022-09-20T20:34:08.865Z,10.85
2022-09-20T20:37:11.734Z,10.82
2022-09-20T20:40:21.868Z,10.81
2022-09-20T20:43:24.936Z,10.75
2022-09-20T20:46:27.674Z,10.71
2022-09-20T20:49:31.005Z,10.67
2022-09-20T20:52:33.612Z,10.62
2022-09-20T20:55:36.580Z,10.50
2022-09-20T20:58:42.021Z,10.41
2022-09-20T21:01:45.986Z,10.34
2022-09-20T21:04:48.563Z,10.45
2022-09-20T21:07:52.571Z,10.34
2022-09-20T21:11:01.110Z,10.37
2022-09-20T21:14:07.272Z,10.36
2022-09-20T21:17:09.959Z,10.37
2022-09-20T21:20:12.963Z,10.30
2022-09-20T21:23:17.910Z,10.30
2022-09-20T21:26:22.255Z,10.29
2022-09-20T21:29:24.918Z,10.28
2022-09-20T21:32:27.798Z,10.23
2022-09-20T21:35:33.636Z,10.20
2022-09-20T21:38:36.895Z,10.18
2022-09-20T21:41:49.140Z,10.15
2022-09-20T21:44:53.018Z,10.14
2022-09-20T21:47:55.471Z,10.14
2022-09-20T21:51:03.509Z,10.13
2022-09-20T21:54:06.301Z,10.12
2022-09-20T21:57:13.574Z,10.06
2022-09-20T22:00:16.124Z,10.05
2022-09-20T22:03:18.955Z,10.02
2022-09-20T22:06:33.086Z,9.92
2022-09-20T22:09:35.931Z,9.86
2022-09-20T22:12:38.412Z,9.83
2022-09-20T22:15:41.317Z,9.84
2022-09-20T22:18:44.073Z,9.81
2022-09-20T22:21:48.733Z,9.77
2022-09-20T22:24:51.205Z,9.74
2022-09-20T22:27:54.018Z,9.76
2022-09-20T22:30:56.967Z,9.68
2022-09-20T22:34:02.196Z,9.74
2022-09-20T22:37:04.729Z,9.72
2022-09-20T22:40:07.854Z,9.76
2022-09-20T22:43:10.755Z,9.82
2022-09-20T22:46:18.190Z,9.80
2022-09-20T22:49:20.802Z,9.80
2022-09-20T22:52:23.543Z,9.75
2022-09-20T22:55:27.407Z,9.76
2022-09-20T22:58:41.367Z,9.78
2022-09-20T23:01:45.650Z,9.75
2022-09-20T23:04:48.543Z,9.72
2022-09-20T23:07:51.141Z,9.75
2022-09-20T23:11:04.167Z,9.68
2022-09-20T23:14:06.657Z,9.68
2022-09-20T23:17:09.443Z,9.52
2022-09-20T23:20:12.053Z,9.60
2022-09-20T23:23:23.538Z,9.63
2022-09-20T23:26:27.046Z,9.64
2022-09-20T23:29:30.059Z,9.66
2022-09-20T23:32:32.550Z,9.61
2022-09-20T23:35:35.730Z,9.58
2022-09-20T23:38:38.202Z,9.66
2022-09-20T23:41:41.663Z,9.72
2022-09-20T23:44:44.347Z,9.73
2022-09-20T23:47:50.214Z,9.72
2022-09-20T23:50:52.826Z,9.69
2022-09-20T23:53:56.138Z,9.64
2022-09-20T23:56:58.669Z,9.66
